sensor_id;sensor_type;location;lat;lon;timestamp;P1;durP1;ratioP1;P2;durP2;ratioP2
8964;SDS011;4517;49.020;12.066;2023-04-29T00:01:04;21.20;;;19.03;;
8964;SDS011;4517;49.020;12.066;2023-04-29T00:03:30;19.70;;;17.90;;
8964;SDS011;4517;49.020;12.066;2023-04-29T00:05:57;20.33;;;18.23;;
8964;SDS011;4517;49.020;12.066;2023-04-29T00:08:23;20.73;;;18.20;;
8964;SDS011;4517;49.020;12.066;2023-04-29T00:10:48;21.23;;;19.13;;
8964;SDS011;4517;49.020;12.066;2023-04-29T00:13:14;19.43;;;17.47;;
8964;SDS011;4517;49.020;12.066;2023-04-29T00:15:40;23.47;;;19.73;;
8964;SDS011;4517;49.020;12.066;2023-04-29T00:18:06;29.90;;;21.90;;
8964;SDS011;4517;49.020;12.066;2023-04-29T00:20:34;31.20;;;24.20;;
8964;SDS011;4517;49.020;12.066;2023-04-29T00:23:02;31.80;;;25.13;;
8964;SDS011;4517;49.020;12.066;2023-04-29T00:25:27;34.17;;;23.83;;
8964;SDS011;4517;49.020;12.066;2023-04-29T00:27:53;33.73;;;23.57;;
8964;SDS011;4517;49.020;12.066;2023-04-29T00:30:18;33.23;;;23.50;;
8964;SDS011;4517;49.020;12.066;2023-04-29T00:32:44;34.67;;;24.17;;
8964;SDS011;4517;49.020;12.066;2023-04-29T00:35:10;35.70;;;24.47;;
8964;SDS011;4517;49.020;12.066;2023-04-29T00:37:36;34.40;;;23.60;;
8964;SDS011;4517;49.020;12.066;2023-04-29T00:40:01;32.67;;;25.33;;
8964;SDS011;4517;49.020;12.066;2023-04-29T00:42:29;35.60;;;26.27;;
8964;SDS011;4517;49.020;12.066;2023-04-29T00:44:57;34.60;;;25.10;;
8964;SDS011;4517;49.020;12.066;2023-04-29T00:47:22;41.50;;;27.20;;
8964;SDS011;4517;49.020;12.066;2023-04-29T00:49:48;36.47;;;26.57;;
8964;SDS011;4517;49.020;12.066;2023-04-29T00:52:14;44.67;;;29.23;;
8964;SDS011;4517;49.020;12.066;2023-04-29T00:54:40;44.70;;;29.10;;
8964;SDS011;4517;49.020;12.066;2023-04-29T00:57:06;41.60;;;28.70;;
8964;SDS011;4517;49.020;12.066;2023-04-29T00:59:31;46.00;;;27.17;;
8964;SDS011;4517;49.020;12.066;2023-04-29T01:01:59;42.63;;;28.73;;
8964;SDS011;4517;49.020;12.066;2023-04-29T01:04:26;49.73;;;30.93;;
8964;SDS011;4517;49.020;12.066;2023-04-29T01:12:20;43.07;;;28.87;;
8964;SDS011;4517;49.020;12.066;2023-04-29T01:14:53;45.93;;;28.37;;
8964;SDS011;4517;49.020;12.066;2023-04-29T01:17:30;48.93;;;28.90;;
8964;SDS011;4517;49.020;12.066;2023-04-29T01:20:21;42.67;;;28.93;;
8964;SDS011;4517;49.020;12.066;2023-04-29T01:22:47;40.13;;;28.10;;
8964;SDS011;4517;49.020;12.066;2023-04-29T01:25:13;50.40;;;27.00;;
8964;SDS011;4517;49.020;12.066;2023-04-29T01:27:41;48.47;;;29.20;;
8964;SDS011;4517;49.020;12.066;2023-04-29T01:36:50;49.07;;;28.60;;
8964;SDS011;4517;49.020;12.066;2023-04-29T01:39:40;43.47;;;30.13;;
8964;SDS011;4517;49.020;12.066;2023-04-29T01:45:04;44.90;;;29.90;;
8964;SDS011;4517;49.020;12.066;2023-04-29T01:47:32;42.50;;;29.87;;
8964;SDS011;4517;49.020;12.066;2023-04-29T01:49:58;42.20;;;28.40;;
8964;SDS011;4517;49.020;12.066;2023-04-29T01:52:23;45.63;;;30.67;;
8964;SDS011;4517;49.020;12.066;2023-04-29T01:54:49;46.20;;;30.07;;
8964;SDS011;4517;49.020;12.066;2023-04-29T01:57:14;42.97;;;28.40;;
8964;SDS011;4517;49.020;12.066;2023-04-29T01:59:40;47.93;;;30.07;;
8964;SDS011;4517;49.020;12.066;2023-04-29T02:02:06;45.03;;;29.93;;
8964;SDS011;4517;49.020;12.066;2023-04-29T02:04:34;44.23;;;30.83;;
8964;SDS011;4517;49.020;12.066;2023-04-29T02:06:59;49.13;;;28.43;;
8964;SDS011;4517;49.020;12.066;2023-04-29T02:09:25;45.70;;;28.53;;
8964;SDS011;4517;49.020;12.066;2023-04-29T02:11:51;44.33;;;29.07;;
8964;SDS011;4517;49.020;12.066;2023-04-29T02:14:17;38.77;;;28.07;;
8964;SDS011;4517;49.020;12.066;2023-04-29T02:16:43;46.83;;;28.07;;
8964;SDS011;4517;49.020;12.066;2023-04-29T02:19:09;41.43;;;28.67;;
8964;SDS011;4517;49.020;12.066;2023-04-29T02:21:35;40.97;;;27.40;;
8964;SDS011;4517;49.020;12.066;2023-04-29T02:24:00;38.90;;;29.53;;
8964;SDS011;4517;49.020;12.066;2023-04-29T02:26:26;49.80;;;31.23;;
8964;SDS011;4517;49.020;12.066;2023-04-29T02:28:52;39.10;;;29.47;;
8964;SDS011;4517;49.020;12.066;2023-04-29T02:31:18;47.43;;;29.77;;
8964;SDS011;4517;49.020;12.066;2023-04-29T02:33:44;41.37;;;29.93;;
8964;SDS011;4517;49.020;12.066;2023-04-29T02:36:09;42.27;;;30.00;;
8964;SDS011;4517;49.020;12.066;2023-04-29T02:38:35;42.27;;;30.23;;
8964;SDS011;4517;49.020;12.066;2023-04-29T02:41:00;49.30;;;29.13;;
8964;SDS011;4517;49.020;12.066;2023-04-29T02:43:26;44.03;;;28.93;;
8964;SDS011;4517;49.020;12.066;2023-04-29T02:45:55;51.57;;;30.23;;
8964;SDS011;4517;49.020;12.066;2023-04-29T02:48:20;43.67;;;31.23;;
8964;SDS011;4517;49.020;12.066;2023-04-29T02:50:46;41.37;;;29.50;;
8964;SDS011;4517;49.020;12.066;2023-04-29T02:53:11;35.67;;;28.73;;
8964;SDS011;4517;49.020;12.066;2023-04-29T02:55:37;44.87;;;30.03;;
8964;SDS011;4517;49.020;12.066;2023-04-29T02:58:02;41.60;;;31.23;;
8964;SDS011;4517;49.020;12.066;2023-04-29T03:00:28;41.17;;;30.20;;
8964;SDS011;4517;49.020;12.066;2023-04-29T03:02:53;41.77;;;30.50;;
8964;SDS011;4517;49.020;12.066;2023-04-29T03:05:19;48.47;;;29.63;;
8964;SDS011;4517;49.020;12.066;2023-04-29T03:07:44;51.93;;;30.70;;
8964;SDS011;4517;49.020;12.066;2023-04-29T03:10:10;45.10;;;30.23;;
8964;SDS011;4517;49.020;12.066;2023-04-29T03:12:36;38.97;;;29.53;;
8964;SDS011;4517;49.020;12.066;2023-04-29T03:15:03;43.80;;;30.83;;
8964;SDS011;4517;49.020;12.066;2023-04-29T03:17:30;42.63;;;28.47;;
8964;SDS011;4517;49.020;12.066;2023-04-29T03:19:57;35.80;;;28.30;;
8964;SDS011;4517;49.020;12.066;2023-04-29T03:22:23;37.93;;;28.90;;
8964;SDS011;4517;49.020;12.066;2023-04-29T03:24:48;36.97;;;28.73;;
8964;SDS011;4517;49.020;12.066;2023-04-29T03:27:14;40.93;;;28.87;;
8964;SDS011;4517;49.020;12.066;2023-04-29T03:29:40;38.63;;;28.77;;
8964;SDS011;4517;49.020;12.066;2023-04-29T03:32:05;34.80;;;27.90;;
8964;SDS011;4517;49.020;12.066;2023-04-29T03:34:31;48.13;;;26.93;;
8964;SDS011;4517;49.020;12.066;2023-04-29T03:36:57;37.77;;;27.30;;
8964;SDS011;4517;49.020;12.066;2023-04-29T03:39:22;37.70;;;26.37;;
8964;SDS011;4517;49.020;12.066;2023-04-29T03:41:48;31.33;;;26.53;;
8964;SDS011;4517;49.020;12.066;2023-04-29T03:44:14;35.00;;;28.03;;
8964;SDS011;4517;49.020;12.066;2023-04-29T03:46:39;34.30;;;27.53;;
8964;SDS011;4517;49.020;12.066;2023-04-29T03:49:05;44.27;;;27.33;;
8964;SDS011;4517;49.020;12.066;2023-04-29T03:51:30;45.03;;;26.27;;
8964;SDS011;4517;49.020;12.066;2023-04-29T03:53:56;46.90;;;27.40;;
8964;SDS011;4517;49.020;12.066;2023-04-29T03:56:23;34.03;;;25.93;;
8964;SDS011;4517;49.020;12.066;2023-04-29T03:58:52;33.43;;;25.83;;
8964;SDS011;4517;49.020;12.066;2023-04-29T04:01:17;37.53;;;27.50;;
8964;SDS011;4517;49.020;12.066;2023-04-29T04:03:43;38.57;;;27.53;;
8964;SDS011;4517;49.020;12.066;2023-04-29T04:06:09;39.53;;;28.20;;
8964;SDS011;4517;49.020;12.066;2023-04-29T04:08:35;41.63;;;28.63;;
8964;SDS011;4517;49.020;12.066;2023-04-29T04:11:00;41.10;;;26.90;;
8964;SDS011;4517;49.020;12.066;2023-04-29T04:13:29;41.77;;;27.43;;
8964;SDS011;4517;49.020;12.066;2023-04-29T04:15:55;33.03;;;26.33;;
8964;SDS011;4517;49.020;12.066;2023-04-29T04:18:20;39.10;;;26.50;;
8964;SDS011;4517;49.020;12.066;2023-04-29T04:20:46;40.80;;;27.80;;
8964;SDS011;4517;49.020;12.066;2023-04-29T04:23:12;37.43;;;25.97;;
8964;SDS011;4517;49.020;12.066;2023-04-29T04:25:37;35.53;;;26.17;;
8964;SDS011;4517;49.020;12.066;2023-04-29T04:28:08;37.80;;;26.80;;
8964;SDS011;4517;49.020;12.066;2023-04-29T04:30:34;39.40;;;26.90;;
8964;SDS011;4517;49.020;12.066;2023-04-29T04:33:00;42.17;;;28.80;;
8964;SDS011;4517;49.020;12.066;2023-04-29T04:35:26;44.63;;;28.00;;
8964;SDS011;4517;49.020;12.066;2023-04-29T04:37:51;40.90;;;28.67;;
8964;SDS011;4517;49.020;12.066;2023-04-29T04:40:17;42.00;;;27.13;;
8964;SDS011;4517;49.020;12.066;2023-04-29T04:42:43;41.50;;;27.20;;
8964;SDS011;4517;49.020;12.066;2023-04-29T04:45:08;49.00;;;30.50;;
8964;SDS011;4517;49.020;12.066;2023-04-29T04:47:35;45.07;;;29.60;;
8964;SDS011;4517;49.020;12.066;2023-04-29T04:50:01;46.57;;;28.37;;
8964;SDS011;4517;49.020;12.066;2023-04-29T04:52:28;47.80;;;29.10;;
8964;SDS011;4517;49.020;12.066;2023-04-29T04:54:53;62.13;;;32.87;;
8964;SDS011;4517;49.020;12.066;2023-04-29T04:57:19;62.70;;;32.60;;
8964;SDS011;4517;49.020;12.066;2023-04-29T04:59:45;54.03;;;33.17;;
8964;SDS011;4517;49.020;12.066;2023-04-29T05:02:10;45.23;;;31.13;;
8964;SDS011;4517;49.020;12.066;2023-04-29T05:04:36;36.60;;;32.10;;
8964;SDS011;4517;49.020;12.066;2023-04-29T05:07:01;46.67;;;33.53;;
8964;SDS011;4517;49.020;12.066;2023-04-29T05:09:27;40.03;;;33.07;;
8964;SDS011;4517;49.020;12.066;2023-04-29T05:11:53;38.50;;;34.17;;
8964;SDS011;4517;49.020;12.066;2023-04-29T05:14:18;38.87;;;32.37;;
8964;SDS011;4517;49.020;12.066;2023-04-29T05:16:44;34.80;;;31.30;;
8964;SDS011;4517;49.020;12.066;2023-04-29T05:19:10;31.87;;;27.90;;
8964;SDS011;4517;49.020;12.066;2023-04-29T05:21:36;31.27;;;27.73;;
8964;SDS011;4517;49.020;12.066;2023-04-29T05:24:02;32.43;;;28.87;;
8964;SDS011;4517;49.020;12.066;2023-04-29T05:26:28;29.70;;;26.63;;
8964;SDS011;4517;49.020;12.066;2023-04-29T05:28:53;31.00;;;26.10;;
8964;SDS011;4517;49.020;12.066;2023-04-29T05:31:19;30.20;;;24.53;;
8964;SDS011;4517;49.020;12.066;2023-04-29T05:33:45;27.50;;;24.60;;
8964;SDS011;4517;49.020;12.066;2023-04-29T05:36:11;33.47;;;27.20;;
8964;SDS011;4517;49.020;12.066;2023-04-29T05:38:36;30.07;;;27.07;;
8964;SDS011;4517;49.020;12.066;2023-04-29T05:41:02;29.63;;;26.30;;
8964;SDS011;4517;49.020;12.066;2023-04-29T05:43:28;26.83;;;24.43;;
8964;SDS011;4517;49.020;12.066;2023-04-29T05:45:53;25.30;;;23.00;;
8964;SDS011;4517;49.020;12.066;2023-04-29T05:48:20;26.60;;;24.00;;
8964;SDS011;4517;49.020;12.066;2023-04-29T05:50:45;23.87;;;21.40;;
8964;SDS011;4517;49.020;12.066;2023-04-29T05:53:12;26.03;;;21.77;;
8964;SDS011;4517;49.020;12.066;2023-04-29T05:55:38;25.80;;;20.23;;
8964;SDS011;4517;49.020;12.066;2023-04-29T05:58:04;25.77;;;23.07;;
8964;SDS011;4517;49.020;12.066;2023-04-29T06:00:29;24.13;;;22.03;;
8964;SDS011;4517;49.020;12.066;2023-04-29T06:02:55;22.80;;;20.70;;
8964;SDS011;4517;49.020;12.066;2023-04-29T06:05:22;21.70;;;19.80;;
8964;SDS011;4517;49.020;12.066;2023-04-29T06:07:48;21.33;;;19.53;;
8964;SDS011;4517;49.020;12.066;2023-04-29T06:10:13;19.13;;;17.30;;
8964;SDS011;4517;49.020;12.066;2023-04-29T06:12:39;19.50;;;17.87;;
8964;SDS011;4517;49.020;12.066;2023-04-29T06:15:05;18.67;;;17.07;;
8964;SDS011;4517;49.020;12.066;2023-04-29T06:17:31;19.70;;;18.00;;
8964;SDS011;4517;49.020;12.066;2023-04-29T06:19:57;19.23;;;17.73;;
8964;SDS011;4517;49.020;12.066;2023-04-29T06:22:22;19.00;;;17.53;;
8964;SDS011;4517;49.020;12.066;2023-04-29T06:24:49;18.73;;;17.23;;
8964;SDS011;4517;49.020;12.066;2023-04-29T06:27:15;17.10;;;15.70;;
8964;SDS011;4517;49.020;12.066;2023-04-29T06:29:40;18.40;;;16.87;;
8964;SDS011;4517;49.020;12.066;2023-04-29T06:32:06;18.27;;;16.77;;
8964;SDS011;4517;49.020;12.066;2023-04-29T06:34:32;18.37;;;16.97;;
8964;SDS011;4517;49.020;12.066;2023-04-29T06:36:58;17.27;;;16.03;;
8964;SDS011;4517;49.020;12.066;2023-04-29T06:39:23;17.53;;;16.13;;
8964;SDS011;4517;49.020;12.066;2023-04-29T06:41:49;16.00;;;14.60;;
8964;SDS011;4517;49.020;12.066;2023-04-29T06:44:16;16.43;;;15.20;;
8964;SDS011;4517;49.020;12.066;2023-04-29T06:46:42;16.80;;;15.50;;
8964;SDS011;4517;49.020;12.066;2023-04-29T06:49:08;15.90;;;14.70;;
8964;SDS011;4517;49.020;12.066;2023-04-29T06:51:34;17.00;;;15.70;;
8964;SDS011;4517;49.020;12.066;2023-04-29T06:54:01;18.23;;;16.50;;
8964;SDS011;4517;49.020;12.066;2023-04-29T06:56:26;17.60;;;16.20;;
8964;SDS011;4517;49.020;12.066;2023-04-29T06:58:52;18.20;;;16.80;;
8964;SDS011;4517;49.020;12.066;2023-04-29T07:01:17;16.67;;;15.47;;
8964;SDS011;4517;49.020;12.066;2023-04-29T07:03:43;16.77;;;15.57;;
8964;SDS011;4517;49.020;12.066;2023-04-29T07:06:09;17.30;;;15.80;;
8964;SDS011;4517;49.020;12.066;2023-04-29T07:08:34;15.97;;;14.77;;
8964;SDS011;4517;49.020;12.066;2023-04-29T07:11:00;16.63;;;15.37;;
8964;SDS011;4517;49.020;12.066;2023-04-29T07:13:25;15.87;;;14.57;;
8964;SDS011;4517;49.020;12.066;2023-04-29T07:15:51;15.73;;;14.37;;
8964;SDS011;4517;49.020;12.066;2023-04-29T07:18:17;14.80;;;13.70;;
8964;SDS011;4517;49.020;12.066;2023-04-29T07:20:42;15.43;;;14.00;;
8964;SDS011;4517;49.020;12.066;2023-04-29T07:23:08;15.30;;;14.20;;
8964;SDS011;4517;49.020;12.066;2023-04-29T07:25:34;14.40;;;13.47;;
8964;SDS011;4517;49.020;12.066;2023-04-29T07:27:59;15.37;;;14.30;;
8964;SDS011;4517;49.020;12.066;2023-04-29T07:30:25;16.10;;;14.50;;
8964;SDS011;4517;49.020;12.066;2023-04-29T07:32:51;13.70;;;12.87;;
8964;SDS011;4517;49.020;12.066;2023-04-29T07:35:16;14.60;;;13.60;;
8964;SDS011;4517;49.020;12.066;2023-04-29T07:37:42;12.97;;;12.07;;
8964;SDS011;4517;49.020;12.066;2023-04-29T07:40:09;13.67;;;12.63;;
8964;SDS011;4517;49.020;12.066;2023-04-29T07:42:35;12.93;;;11.80;;
8964;SDS011;4517;49.020;12.066;2023-04-29T07:45:01;12.60;;;11.73;;
8964;SDS011;4517;49.020;12.066;2023-04-29T07:47:27;12.30;;;11.60;;
8964;SDS011;4517;49.020;12.066;2023-04-29T07:49:54;16.03;;;14.97;;
8964;SDS011;4517;49.020;12.066;2023-04-29T07:52:21;13.73;;;12.93;;
8964;SDS011;4517;49.020;12.066;2023-04-29T07:54:47;13.23;;;12.20;;
8964;SDS011;4517;49.020;12.066;2023-04-29T07:57:13;13.97;;;13.00;;
8964;SDS011;4517;49.020;12.066;2023-04-29T07:59:39;13.60;;;12.80;;
8964;SDS011;4517;49.020;12.066;2023-04-29T08:02:05;13.13;;;12.43;;
8964;SDS011;4517;49.020;12.066;2023-04-29T08:04:30;13.63;;;12.83;;
8964;SDS011;4517;49.020;12.066;2023-04-29T08:06:56;14.03;;;13.23;;
8964;SDS011;4517;49.020;12.066;2023-04-29T08:09:23;14.63;;;13.77;;
8964;SDS011;4517;49.020;12.066;2023-04-29T08:11:48;14.27;;;13.37;;
8964;SDS011;4517;49.020;12.066;2023-04-29T08:14:14;14.23;;;13.40;;
8964;SDS011;4517;49.020;12.066;2023-04-29T08:16:39;14.20;;;13.40;;
8964;SDS011;4517;49.020;12.066;2023-04-29T08:19:05;16.70;;;15.80;;
8964;SDS011;4517;49.020;12.066;2023-04-29T08:21:30;13.53;;;12.73;;
8964;SDS011;4517;49.020;12.066;2023-04-29T08:23:56;13.17;;;12.47;;
8964;SDS011;4517;49.020;12.066;2023-04-29T08:26:22;14.60;;;13.70;;
8964;SDS011;4517;49.020;12.066;2023-04-29T08:28:48;14.43;;;13.53;;
8964;SDS011;4517;49.020;12.066;2023-04-29T08:31:17;14.00;;;13.20;;
8964;SDS011;4517;49.020;12.066;2023-04-29T08:33:45;14.37;;;13.40;;
8964;SDS011;4517;49.020;12.066;2023-04-29T08:36:10;14.20;;;13.20;;
8964;SDS011;4517;49.020;12.066;2023-04-29T08:38:36;14.63;;;13.63;;
8964;SDS011;4517;49.020;12.066;2023-04-29T08:41:02;13.00;;;12.30;;
8964;SDS011;4517;49.020;12.066;2023-04-29T08:43:27;14.20;;;13.30;;
8964;SDS011;4517;49.020;12.066;2023-04-29T08:45:54;13.53;;;12.67;;
8964;SDS011;4517;49.020;12.066;2023-04-29T08:48:23;14.20;;;13.30;;
8964;SDS011;4517;49.020;12.066;2023-04-29T08:50:50;13.67;;;12.87;;
8964;SDS011;4517;49.020;12.066;2023-04-29T08:53:16;13.97;;;12.87;;
8964;SDS011;4517;49.020;12.066;2023-04-29T08:55:42;13.97;;;13.03;;
8964;SDS011;4517;49.020;12.066;2023-04-29T08:58:12;13.90;;;13.00;;
8964;SDS011;4517;49.020;12.066;2023-04-29T09:00:40;13.53;;;12.73;;
8964;SDS011;4517;49.020;12.066;2023-04-29T09:05:41;13.77;;;12.97;;
8964;SDS011;4517;49.020;12.066;2023-04-29T09:08:10;14.43;;;13.50;;
8964;SDS011;4517;49.020;12.066;2023-04-29T09:10:36;14.40;;;13.50;;
8964;SDS011;4517;49.020;12.066;2023-04-29T09:13:05;15.00;;;14.00;;
8964;SDS011;4517;49.020;12.066;2023-04-29T09:15:34;12.73;;;12.03;;
8964;SDS011;4517;49.020;12.066;2023-04-29T09:18:01;13.93;;;12.80;;
8964;SDS011;4517;49.020;12.066;2023-04-29T09:20:27;13.13;;;12.43;;
8964;SDS011;4517;49.020;12.066;2023-04-29T09:22:57;13.00;;;12.30;;
8964;SDS011;4517;49.020;12.066;2023-04-29T09:25:25;13.53;;;12.73;;
8964;SDS011;4517;49.020;12.066;2023-04-29T09:27:51;13.00;;;12.30;;
8964;SDS011;4517;49.020;12.066;2023-04-29T09:30:18;13.37;;;12.57;;
8964;SDS011;4517;49.020;12.066;2023-04-29T09:32:45;13.30;;;12.60;;
8964;SDS011;4517;49.020;12.066;2023-04-29T09:35:24;12.67;;;11.80;;
8964;SDS011;4517;49.020;12.066;2023-04-29T09:37:51;12.60;;;11.77;;
8964;SDS011;4517;49.020;12.066;2023-04-29T09:42:57;12.93;;;12.10;;
8964;SDS011;4517;49.020;12.066;2023-04-29T09:48:03;16.53;;;15.63;;
8964;SDS011;4517;49.020;12.066;2023-04-29T09:50:30;13.73;;;12.80;;
8964;SDS011;4517;49.020;12.066;2023-04-29T09:53:01;14.57;;;13.40;;
8964;SDS011;4517;49.020;12.066;2023-04-29T09:55:27;13.50;;;12.70;;
8964;SDS011;4517;49.020;12.066;2023-04-29T09:57:53;13.97;;;13.07;;
8964;SDS011;4517;49.020;12.066;2023-04-29T10:00:19;14.77;;;13.50;;
8964;SDS011;4517;49.020;12.066;2023-04-29T10:02:45;14.50;;;13.60;;
8964;SDS011;4517;49.020;12.066;2023-04-29T10:05:15;14.30;;;13.40;;
8964;SDS011;4517;49.020;12.066;2023-04-29T10:07:41;13.57;;;12.67;;
8964;SDS011;4517;49.020;12.066;2023-04-29T10:10:08;14.07;;;13.20;;
8964;SDS011;4517;49.020;12.066;2023-04-29T10:12:35;13.97;;;13.17;;
8964;SDS011;4517;49.020;12.066;2023-04-29T10:15:04;13.63;;;12.73;;
8964;SDS011;4517;49.020;12.066;2023-04-29T10:20:10;13.97;;;13.17;;
8964;SDS011;4517;49.020;12.066;2023-04-29T10:22:47;14.50;;;13.57;;
8964;SDS011;4517;49.020;12.066;2023-04-29T10:25:18;13.87;;;13.07;;
8964;SDS011;4517;49.020;12.066;2023-04-29T10:27:46;15.27;;;14.27;;
8964;SDS011;4517;49.020;12.066;2023-04-29T10:30:13;14.27;;;13.43;;
8964;SDS011;4517;49.020;12.066;2023-04-29T10:32:40;14.30;;;13.40;;
8964;SDS011;4517;49.020;12.066;2023-04-29T10:35:11;13.50;;;12.70;;
8964;SDS011;4517;49.020;12.066;2023-04-29T10:37:42;15.30;;;14.00;;
8964;SDS011;4517;49.020;12.066;2023-04-29T10:40:10;15.77;;;14.63;;
8964;SDS011;4517;49.020;12.066;2023-04-29T10:42:55;17.20;;;15.90;;
8964;SDS011;4517;49.020;12.066;2023-04-29T10:45:22;15.97;;;14.90;;
8964;SDS011;4517;49.020;12.066;2023-04-29T10:48:09;15.87;;;14.70;;
8964;SDS011;4517;49.020;12.066;2023-04-29T10:53:12;15.40;;;14.27;;
8964;SDS011;4517;49.020;12.066;2023-04-29T10:55:39;15.47;;;14.37;;
8964;SDS011;4517;49.020;12.066;2023-04-29T10:58:05;15.30;;;14.20;;
8964;SDS011;4517;49.020;12.066;2023-04-29T11:01:00;15.27;;;14.27;;
8964;SDS011;4517;49.020;12.066;2023-04-29T11:06:23;15.93;;;14.67;;
8964;SDS011;4517;49.020;12.066;2023-04-29T11:12:02;15.77;;;14.77;;
8964;SDS011;4517;49.020;12.066;2023-04-29T11:14:36;16.63;;;15.13;;
8964;SDS011;4517;49.020;12.066;2023-04-29T11:17:08;16.33;;;15.23;;
8964;SDS011;4517;49.020;12.066;2023-04-29T11:19:43;16.07;;;14.70;;
8964;SDS011;4517;49.020;12.066;2023-04-29T11:25:04;14.90;;;13.80;;
8964;SDS011;4517;49.020;12.066;2023-04-29T11:27:35;14.17;;;13.20;;
8964;SDS011;4517;49.020;12.066;2023-04-29T11:30:06;15.20;;;13.63;;
8964;SDS011;4517;49.020;12.066;2023-04-29T11:32:36;14.77;;;13.87;;
8964;SDS011;4517;49.020;12.066;2023-04-29T11:37:32;15.43;;;14.17;;
8964;SDS011;4517;49.020;12.066;2023-04-29T11:39:59;14.47;;;13.43;;
8964;SDS011;4517;49.020;12.066;2023-04-29T11:42:25;13.63;;;12.63;;
8964;SDS011;4517;49.020;12.066;2023-04-29T11:44:51;14.43;;;13.33;;
8964;SDS011;4517;49.020;12.066;2023-04-29T11:47:18;14.67;;;13.67;;
8964;SDS011;4517;49.020;12.066;2023-04-29T11:49:45;14.10;;;13.20;;
8964;SDS011;4517;49.020;12.066;2023-04-29T11:52:11;15.30;;;14.30;;
8964;SDS011;4517;49.020;12.066;2023-04-29T11:54:37;15.00;;;13.90;;
8964;SDS011;4517;49.020;12.066;2023-04-29T11:57:05;14.60;;;13.60;;
8964;SDS011;4517;49.020;12.066;2023-04-29T11:59:30;15.57;;;14.37;;
8964;SDS011;4517;49.020;12.066;2023-04-29T12:01:59;14.57;;;13.67;;
8964;SDS011;4517;49.020;12.066;2023-04-29T12:04:25;15.17;;;14.17;;
8964;SDS011;4517;49.020;12.066;2023-04-29T12:06:51;14.10;;;13.23;;
8964;SDS011;4517;49.020;12.066;2023-04-29T12:09:20;14.07;;;13.00;;
8964;SDS011;4517;49.020;12.066;2023-04-29T12:11:46;14.60;;;13.60;;
8964;SDS011;4517;49.020;12.066;2023-04-29T12:14:14;13.83;;;13.03;;
8964;SDS011;4517;49.020;12.066;2023-04-29T12:16:39;14.90;;;13.70;;
8964;SDS011;4517;49.020;12.066;2023-04-29T12:19:05;15.00;;;14.10;;
8964;SDS011;4517;49.020;12.066;2023-04-29T12:21:32;14.80;;;13.90;;
8964;SDS011;4517;49.020;12.066;2023-04-29T12:23:58;13.90;;;13.10;;
8964;SDS011;4517;49.020;12.066;2023-04-29T12:26:29;13.50;;;12.50;;
8964;SDS011;4517;49.020;12.066;2023-04-29T12:28:56;12.97;;;12.17;;
8964;SDS011;4517;49.020;12.066;2023-04-29T12:31:23;12.80;;;12.03;;
8964;SDS011;4517;49.020;12.066;2023-04-29T12:33:55;13.47;;;12.57;;
8964;SDS011;4517;49.020;12.066;2023-04-29T12:36:21;13.80;;;13.00;;
8964;SDS011;4517;49.020;12.066;2023-04-29T12:38:47;12.87;;;12.07;;
8964;SDS011;4517;49.020;12.066;2023-04-29T12:41:13;13.40;;;12.60;;
8964;SDS011;4517;49.020;12.066;2023-04-29T12:43:41;14.20;;;13.20;;
8964;SDS011;4517;49.020;12.066;2023-04-29T12:46:07;14.10;;;13.27;;
8964;SDS011;4517;49.020;12.066;2023-04-29T12:48:37;12.80;;;12.10;;
8964;SDS011;4517;49.020;12.066;2023-04-29T12:51:10;13.80;;;13.00;;
8964;SDS011;4517;49.020;12.066;2023-04-29T12:53:37;13.40;;;12.60;;
8964;SDS011;4517;49.020;12.066;2023-04-29T12:56:03;14.00;;;12.90;;
8964;SDS011;4517;49.020;12.066;2023-04-29T12:58:30;14.60;;;13.70;;
8964;SDS011;4517;49.020;12.066;2023-04-29T13:00:56;14.00;;;13.20;;
8964;SDS011;4517;49.020;12.066;2023-04-29T13:03:22;13.10;;;12.30;;
8964;SDS011;4517;49.020;12.066;2023-04-29T13:05:48;13.73;;;12.90;;
8964;SDS011;4517;49.020;12.066;2023-04-29T13:08:16;13.40;;;12.60;;
8964;SDS011;4517;49.020;12.066;2023-04-29T13:10:42;13.30;;;12.50;;
8964;SDS011;4517;49.020;12.066;2023-04-29T13:13:08;13.37;;;12.57;;
8964;SDS011;4517;49.020;12.066;2023-04-29T13:15:34;14.10;;;13.20;;
8964;SDS011;4517;49.020;12.066;2023-04-29T13:18:01;14.67;;;13.60;;
8964;SDS011;4517;49.020;12.066;2023-04-29T13:20:27;13.67;;;12.87;;
8964;SDS011;4517;49.020;12.066;2023-04-29T13:22:52;13.50;;;12.40;;
8964;SDS011;4517;49.020;12.066;2023-04-29T13:25:18;13.60;;;12.30;;
8964;SDS011;4517;49.020;12.066;2023-04-29T13:27:44;14.00;;;13.20;;
8964;SDS011;4517;49.020;12.066;2023-04-29T13:30:09;13.13;;;12.40;;
8964;SDS011;4517;49.020;12.066;2023-04-29T13:32:35;12.83;;;12.03;;
8964;SDS011;4517;49.020;12.066;2023-04-29T13:35:01;13.73;;;12.67;;
8964;SDS011;4517;49.020;12.066;2023-04-29T13:37:28;13.67;;;12.77;;
8964;SDS011;4517;49.020;12.066;2023-04-29T13:39:53;12.80;;;12.00;;
8964;SDS011;4517;49.020;12.066;2023-04-29T13:42:19;13.40;;;12.40;;
8964;SDS011;4517;49.020;12.066;2023-04-29T13:44:44;13.27;;;12.10;;
8964;SDS011;4517;49.020;12.066;2023-04-29T13:47:10;12.13;;;11.43;;
8964;SDS011;4517;49.020;12.066;2023-04-29T13:49:40;12.57;;;11.83;;
8964;SDS011;4517;49.020;12.066;2023-04-29T13:52:08;13.27;;;12.37;;
8964;SDS011;4517;49.020;12.066;2023-04-29T13:54:34;12.80;;;12.10;;
8964;SDS011;4517;49.020;12.066;2023-04-29T13:57:00;15.37;;;13.77;;
8964;SDS011;4517;49.020;12.066;2023-04-29T13:59:30;13.37;;;12.53;;
8964;SDS011;4517;49.020;12.066;2023-04-29T14:01:56;14.37;;;13.47;;
8964;SDS011;4517;49.020;12.066;2023-04-29T14:04:23;13.73;;;12.83;;
8964;SDS011;4517;49.020;12.066;2023-04-29T14:06:52;12.90;;;12.10;;
8964;SDS011;4517;49.020;12.066;2023-04-29T14:09:18;14.57;;;13.20;;
8964;SDS011;4517;49.020;12.066;2023-04-29T14:11:44;13.33;;;12.07;;
8964;SDS011;4517;49.020;12.066;2023-04-29T14:14:10;13.57;;;12.67;;
8964;SDS011;4517;49.020;12.066;2023-04-29T14:16:36;13.77;;;12.97;;
8964;SDS011;4517;49.020;12.066;2023-04-29T14:19:02;13.63;;;12.80;;
8964;SDS011;4517;49.020;12.066;2023-04-29T14:21:28;14.57;;;13.10;;
8964;SDS011;4517;49.020;12.066;2023-04-29T14:23:53;14.00;;;13.10;;
8964;SDS011;4517;49.020;12.066;2023-04-29T14:26:19;14.40;;;13.40;;
8964;SDS011;4517;49.020;12.066;2023-04-29T14:28:45;14.50;;;13.20;;
8964;SDS011;4517;49.020;12.066;2023-04-29T14:31:10;13.77;;;12.97;;
8964;SDS011;4517;49.020;12.066;2023-04-29T14:33:38;13.17;;;12.23;;
8964;SDS011;4517;49.020;12.066;2023-04-29T14:36:05;13.80;;;13.00;;
8964;SDS011;4517;49.020;12.066;2023-04-29T14:38:31;12.60;;;11.90;;
8964;SDS011;4517;49.020;12.066;2023-04-29T14:40:57;12.37;;;11.57;;
8964;SDS011;4517;49.020;12.066;2023-04-29T14:43:22;12.70;;;12.00;;
8964;SDS011;4517;49.020;12.066;2023-04-29T14:45:48;13.03;;;12.17;;
8964;SDS011;4517;49.020;12.066;2023-04-29T14:48:14;12.60;;;11.90;;
8964;SDS011;4517;49.020;12.066;2023-04-29T14:50:40;13.60;;;12.70;;
8964;SDS011;4517;49.020;12.066;2023-04-29T14:53:05;13.17;;;12.37;;
8964;SDS011;4517;49.020;12.066;2023-04-29T14:55:33;13.47;;;12.57;;
8964;SDS011;4517;49.020;12.066;2023-04-29T14:57:59;12.63;;;11.93;;
8964;SDS011;4517;49.020;12.066;2023-04-29T15:00:29;12.30;;;11.63;;
8964;SDS011;4517;49.020;12.066;2023-04-29T15:02:55;12.90;;;12.10;;
8964;SDS011;4517;49.020;12.066;2023-04-29T15:05:21;12.43;;;11.73;;
8964;SDS011;4517;49.020;12.066;2023-04-29T15:07:47;12.50;;;11.80;;
8964;SDS011;4517;49.020;12.066;2023-04-29T15:10:13;12.73;;;11.83;;